createdAt,value
2023-01-29T00:02:13.442Z,11.07
2023-01-29T00:05:27.468Z,10.15
2023-01-29T00:08:30.710Z,9.47
2023-01-29T00:11:35.807Z,11.38
2023-01-29T00:14:38.460Z,9.32
2023-01-29T00:17:41.040Z,10.07
2023-01-29T00:20:45.210Z,10.00
2023-01-29T00:23:48.640Z,10.50
2023-01-29T00:26:52.673Z,10.02
2023-01-29T00:30:12.914Z,9.27
2023-01-29T00:33:16.195Z,9.63
2023-01-29T00:36:20.617Z,9.57
2023-01-29T00:39:33.671Z,10.13
2023-01-29T00:43:03.279Z,10.25
2023-01-29T00:46:06.586Z,9.77
2023-01-29T00:49:09.785Z,9.80
2023-01-29T00:52:24.429Z,9.88
2023-01-29T00:55:27.078Z,9.80
2023-01-29T00:58:34.326Z,9.52
2023-01-29T01:01:56.018Z,9.30
2023-01-29T01:04:59.049Z,9.30
2023-01-29T01:08:01.696Z,9.68
2023-01-29T01:11:06.407Z,10.90
2023-01-29T01:14:10.398Z,9.73
2023-01-29T01:17:13.181Z,9.93
2023-01-29T01:20:16.179Z,9.20
2023-01-29T01:23:19.668Z,9.88
2023-01-29T01:26:22.331Z,9.13
2023-01-29T01:29:26.381Z,9.77
2023-01-29T01:32:29.013Z,8.65
2023-01-29T01:35:31.628Z,8.63
2023-01-29T01:38:34.273Z,9.30
2023-01-29T01:41:36.976Z,9.20
2023-01-29T01:44:54.646Z,8.45
2023-01-29T01:48:02.410Z,8.65
2023-01-29T01:51:06.513Z,9.15
2023-01-29T01:54:12.864Z,9.38
2023-01-29T01:57:18.644Z,9.63
2023-01-29T02:00:26.107Z,9.10
2023-01-29T02:03:51.872Z,9.80
2023-01-29T02:07:14.709Z,8.80
2023-01-29T02:10:19.341Z,8.93
2023-01-29T02:13:23.366Z,9.83
2023-01-29T02:16:27.693Z,8.43
2023-01-29T02:19:45.538Z,9.00
2023-01-29T02:23:16.898Z,8.50
2023-01-29T02:26:40.970Z,9.43
2023-01-29T02:29:56.945Z,9.40
2023-01-29T02:33:09.304Z,9.20
2023-01-29T02:36:23.077Z,8.55
2023-01-29T02:39:34.149Z,9.02
2023-01-29T02:42:44.533Z,8.25
2023-01-29T02:45:53.252Z,8.37
2023-01-29T02:49:01.948Z,8.40
2023-01-29T02:52:09.798Z,8.05
2023-01-29T02:55:16.294Z,7.70
2023-01-29T02:58:29.181Z,7.30
2023-01-29T03:01:39.912Z,7.67
2023-01-29T03:04:47.591Z,7.30
2023-01-29T03:07:55.957Z,8.55
2023-01-29T03:11:14.352Z,7.40
2023-01-29T03:14:24.174Z,7.10
2023-01-29T03:17:37.337Z,7.50
2023-01-29T03:20:48.198Z,8.02
2023-01-29T03:24:12.930Z,7.93
2023-01-29T03:27:38.928Z,7.43
2023-01-29T03:31:06.419Z,7.95
2023-01-29T03:34:34.652Z,8.63
2023-01-29T03:37:43.687Z,8.30
2023-01-29T03:40:53.073Z,7.55
2023-01-29T03:44:07.142Z,7.03
2023-01-29T03:47:18.036Z,7.22
2023-01-29T03:50:34.409Z,7.40
2023-01-29T03:53:44.129Z,9.05
2023-01-29T03:57:15.517Z,7.38
2023-01-29T04:00:27.857Z,7.00
2023-01-29T04:03:40.091Z,7.05
2023-01-29T04:06:47.656Z,7.30
2023-01-29T04:09:53.738Z,7.47
2023-01-29T04:13:01.930Z,7.22
2023-01-29T04:16:10.613Z,6.53
2023-01-29T04:19:39.734Z,6.95
2023-01-29T04:22:49.558Z,7.83
2023-01-29T04:26:06.883Z,7.72
2023-01-29T04:29:22.031Z,6.65
2023-01-29T04:32:32.555Z,6.88
2023-01-29T04:35:48.627Z,7.93
2023-01-29T04:39:02.787Z,9.43
2023-01-29T04:42:13.576Z,7.85
2023-01-29T04:45:23.181Z,6.63
2023-01-29T04:48:32.250Z,7.35
2023-01-29T04:51:45.174Z,6.35
2023-01-29T04:55:01.488Z,7.10
2023-01-29T04:58:11.581Z,6.85
2023-01-29T05:01:17.635Z,6.93
2023-01-29T05:04:21.777Z,6.93
2023-01-29T05:07:26.530Z,6.85
2023-01-29T05:10:30.900Z,7.87
2023-01-29T05:13:39.397Z,7.10
2023-01-29T05:16:45.649Z,6.57
2023-01-29T05:19:48.955Z,7.13
2023-01-29T05:22:53.845Z,6.95
2023-01-29T05:25:58.185Z,8.70
2023-01-29T05:29:00.916Z,7.10
2023-01-29T05:32:04.103Z,7.60
2023-01-29T05:35:07.571Z,6.95
2023-01-29T05:38:10.471Z,7.40
2023-01-29T05:41:18.051Z,7.97
2023-01-29T05:44:20.679Z,7.63
2023-01-29T05:47:23.431Z,7.22
2023-01-29T05:50:27.202Z,7.13
2023-01-29T05:53:33.358Z,8.43
2023-01-29T05:56:37.297Z,8.43
2023-01-29T05:59:40.047Z,8.82
2023-01-29T06:02:42.919Z,7.00
2023-01-29T06:05:45.647Z,6.80
2023-01-29T06:08:48.601Z,7.35
2023-01-29T06:11:52.682Z,7.50
2023-01-29T06:14:55.621Z,8.13
2023-01-29T06:17:58.280Z,7.65
2023-01-29T06:21:02.603Z,7.53
2023-01-29T06:24:06.047Z,7.38
2023-01-29T06:27:10.035Z,8.33
2023-01-29T06:30:13.693Z,7.28
2023-01-29T06:33:16.369Z,6.50
2023-01-29T06:36:19.121Z,7.55
2023-01-29T06:39:21.810Z,6.78
2023-01-29T06:42:28.091Z,6.93
2023-01-29T06:45:30.966Z,6.82
2023-01-29T06:48:33.941Z,9.82
2023-01-29T06:51:36.622Z,8.60
2023-01-29T06:54:39.311Z,8.02
2023-01-29T06:57:43.328Z,7.70
2023-01-29T07:00:47.161Z,7.35
2023-01-29T07:03:50.901Z,6.90
2023-01-29T07:06:53.665Z,7.88
2023-01-29T07:09:56.298Z,7.55
2023-01-29T07:13:00.704Z,15.63
2023-01-29T07:16:04.857Z,13.05
2023-01-29T07:19:07.589Z,10.13
2023-01-29T07:22:10.223Z,8.90
2023-01-29T07:25:12.984Z,8.98
2023-01-29T07:28:17.375Z,8.43
2023-01-29T07:31:20.287Z,9.25
2023-01-29T07:34:23.073Z,8.10
2023-01-29T07:37:25.707Z,8.18
2023-01-29T07:40:29.096Z,8.40
2023-01-29T07:43:33.516Z,7.40
2023-01-29T07:46:36.403Z,7.00
2023-01-29T07:49:39.152Z,9.20
2023-01-29T07:52:41.746Z,9.20
2023-01-29T07:55:45.409Z,11.20
2023-01-29T07:58:49.536Z,8.87
2023-01-29T08:01:52.304Z,8.57
2023-01-29T08:04:54.961Z,8.35
2023-01-29T08:08:06.632Z,8.38
2023-01-29T08:11:09.935Z,8.95
2023-01-29T08:14:14.021Z,8.50
2023-01-29T08:17:16.791Z,8.15
2023-01-29T08:20:20.978Z,8.00
2023-01-29T08:23:23.890Z,8.60
2023-01-29T08:26:27.395Z,8.73
2023-01-29T08:29:31.654Z,7.60
2023-01-29T08:32:34.434Z,7.20
2023-01-29T08:35:37.374Z,7.55
2023-01-29T08:38:40.228Z,7.35
2023-01-29T08:41:42.865Z,8.88
2023-01-29T08:44:46.909Z,8.93
2023-01-29T08:47:50.217Z,8.27
2023-01-29T08:50:53.013Z,7.95
2023-01-29T08:53:55.835Z,7.47
2023-01-29T08:56:58.595Z,7.53
2023-01-29T09:00:03.887Z,8.80
2023-01-29T09:03:08.048Z,8.70
2023-01-29T09:06:12.618Z,9.20
2023-01-29T09:09:15.567Z,9.57
2023-01-29T09:12:18.241Z,9.30
2023-01-29T09:15:22.801Z,8.00
2023-01-29T09:18:25.550Z,8.18
2023-01-29T09:21:28.398Z,10.75
2023-01-29T09:24:32.633Z,12.55
2023-01-29T09:27:35.329Z,9.25
2023-01-29T09:30:40.322Z,8.37
2023-01-29T09:33:43.218Z,9.10
2023-01-29T09:36:46.327Z,10.13
2023-01-29T09:39:49.189Z,15.55
2023-01-29T09:42:57.806Z,10.43
2023-01-29T09:46:06.403Z,9.33
2023-01-29T09:49:15.656Z,10.73
2023-01-29T09:52:23.678Z,10.68
2023-01-29T09:55:28.732Z,12.93
2023-01-29T09:58:35.793Z,11.75
2023-01-29T10:01:49.860Z,11.00
2023-01-29T10:05:13.254Z,18.45
2023-01-29T10:08:37.033Z,11.63
2023-01-29T10:11:52.676Z,12.55
2023-01-29T10:15:03.380Z,9.30
2023-01-29T10:18:33.837Z,8.53
2023-01-29T10:22:02.179Z,10.40
2023-01-29T10:25:10.393Z,7.88
2023-01-29T10:28:18.551Z,7.70
2023-01-29T10:31:28.097Z,9.35
2023-01-29T10:34:39.014Z,9.53
2023-01-29T10:37:42.813Z,8.82
2023-01-29T10:40:50.538Z,8.85
2023-01-29T10:44:05.155Z,11.15
2023-01-29T10:47:21.324Z,10.82
2023-01-29T10:50:39.400Z,10.70
2023-01-29T10:53:57.442Z,9.18
2023-01-29T10:57:11.231Z,8.68
2023-01-29T11:00:21.583Z,8.80
2023-01-29T11:03:28.641Z,15.80
2023-01-29T11:06:35.074Z,22.97
2023-01-29T11:09:43.950Z,15.30
2023-01-29T11:12:46.684Z,20.23
2023-01-29T11:16:10.016Z,13.57
2023-01-29T11:19:13.342Z,12.05
2023-01-29T11:22:20.108Z,13.27
2023-01-29T11:25:23.138Z,11.98
2023-01-29T11:28:37.262Z,15.02
2023-01-29T11:31:40.359Z,14.18
2023-01-29T11:35:05.154Z,13.13
2023-01-29T11:38:18.950Z,15.77
2023-01-29T11:41:24.329Z,13.73
2023-01-29T11:44:29.588Z,12.88
2023-01-29T11:47:32.770Z,13.18
2023-01-29T11:50:35.735Z,12.02
2023-01-29T11:53:43.424Z,12.27
2023-01-29T11:56:47.956Z,11.48
2023-01-29T11:59:52.509Z,10.60
2023-01-29T12:02:57.896Z,11.57
2023-01-29T12:06:04.532Z,10.98
2023-01-29T12:09:16.852Z,12.53
2023-01-29T12:12:32.223Z,13.85
2023-01-29T12:15:35.340Z,12.10
2023-01-29T12:18:41.684Z,11.18
2023-01-29T12:21:50.953Z,13.82
2023-01-29T12:24:59.392Z,12.30
2023-01-29T12:28:10.984Z,11.57
2023-01-29T12:31:27.473Z,15.32
2023-01-29T12:34:43.427Z,14.88
2023-01-29T12:37:55.575Z,13.30
2023-01-29T12:41:08.003Z,13.63
2023-01-29T12:44:15.763Z,13.27
2023-01-29T12:47:23.491Z,13.20
2023-01-29T12:50:29.251Z,11.60
2023-01-29T12:53:35.180Z,12.23
2023-01-29T12:56:43.600Z,14.33
2023-01-29T12:59:49.885Z,14.70
2023-01-29T13:02:59.724Z,16.40
2023-01-29T13:06:07.319Z,15.27
2023-01-29T13:09:16.938Z,12.25
2023-01-29T13:12:23.186Z,14.07
2023-01-29T13:15:30.213Z,13.82
2023-01-29T13:18:44.200Z,12.40
2023-01-29T13:21:48.244Z,10.70
2023-01-29T13:25:03.644Z,11.57
2023-01-29T13:28:17.073Z,15.20
2023-01-29T13:31:28.930Z,15.98
2023-01-29T13:34:34.920Z,12.63
2023-01-29T13:37:42.691Z,13.73
2023-01-29T13:40:50.203Z,13.00
2023-01-29T13:43:54.391Z,13.37
2023-01-29T13:46:59.427Z,13.38
2023-01-29T13:50:07.686Z,12.85
2023-01-29T13:53:22.675Z,13.18
2023-01-29T13:56:41.654Z,14.52
2023-01-29T13:59:55.287Z,13.67
2023-01-29T14:03:45.033Z,17.13
2023-01-29T14:06:55.349Z,23.80
2023-01-29T14:10:14.389Z,23.50
2023-01-29T14:13:34.135Z,18.17
2023-01-29T14:16:38.700Z,19.07
2023-01-29T14:20:15.444Z,16.17
2023-01-29T14:23:36.019Z,18.05
2023-01-29T14:26:45.641Z,14.77
2023-01-29T14:29:48.600Z,15.85
2023-01-29T14:32:52.786Z,18.37
2023-01-29T14:35:58.183Z,23.63
2023-01-29T14:39:01.403Z,20.25
2023-01-29T14:42:15.412Z,22.85
2023-01-29T14:45:38.219Z,20.10
2023-01-29T14:48:48.686Z,21.70
2023-01-29T14:51:52.213Z,26.38
2023-01-29T14:54:59.692Z,28.48
2023-01-29T14:58:03.721Z,21.83
2023-01-29T15:01:21.038Z,19.20
2023-01-29T15:04:28.186Z,13.73
2023-01-29T15:07:35.671Z,20.23
2023-01-29T15:10:44.930Z,21.00
2023-01-29T15:13:53.727Z,18.70
2023-01-29T15:17:06.267Z,20.30
2023-01-29T15:20:30.281Z,19.87
2023-01-29T15:23:34.321Z,20.58
2023-01-29T15:26:37.047Z,17.42
2023-01-29T15:29:41.743Z,18.50
2023-01-29T15:32:46.040Z,17.67
2023-01-29T15:36:06.692Z,22.70
2023-01-29T15:39:18.900Z,18.10
2023-01-29T15:42:23.530Z,14.30
2023-01-29T15:45:30.954Z,19.63
2023-01-29T15:48:37.670Z,12.13
2023-01-29T15:51:44.055Z,16.43
2023-01-29T15:54:47.748Z,17.98
2023-01-29T15:57:51.078Z,21.55
2023-01-29T16:00:55.719Z,15.75
2023-01-29T16:04:03.315Z,13.40
2023-01-29T16:07:07.670Z,10.20
2023-01-29T16:10:17.994Z,11.95
2023-01-29T16:13:24.331Z,19.73
2023-01-29T16:16:28.150Z,15.82
2023-01-29T16:19:31.059Z,13.48
2023-01-29T16:22:37.570Z,12.13
2023-01-29T16:25:40.920Z,14.45
2023-01-29T16:28:45.260Z,13.32
2023-01-29T16:31:51.596Z,14.52
2023-01-29T16:34:57.533Z,13.23
2023-01-29T16:38:04.929Z,12.03
2023-01-29T16:41:15.565Z,11.60
2023-01-29T16:44:38.392Z,16.50
2023-01-29T16:47:41.694Z,18.55
2023-01-29T16:50:54.659Z,23.67
2023-01-29T16:54:02.362Z,18.77
2023-01-29T16:57:05.363Z,20.98
2023-01-29T17:00:20.065Z,23.63
2023-01-29T17:03:27.524Z,26.88
2023-01-29T17:06:32.661Z,23.80
2023-01-29T17:09:38.462Z,23.00
2023-01-29T17:12:41.528Z,26.40
2023-01-29T17:15:46.749Z,20.83
2023-01-29T17:18:50.274Z,20.83
2023-01-29T17:21:53.083Z,18.90
2023-01-29T17:24:57.625Z,11.67
2023-01-29T17:28:01.765Z,11.80
2023-01-29T17:31:07.008Z,11.57
2023-01-29T17:34:12.793Z,12.05
2023-01-29T17:37:16.449Z,10.68
2023-01-29T17:40:31.724Z,12.20
2023-01-29T17:43:35.124Z,10.82
2023-01-29T17:46:38.149Z,8.93
2023-01-29T17:49:42.127Z,9.27
2023-01-29T17:52:45.419Z,10.18
2023-01-29T17:55:50.514Z,9.47
2023-01-29T17:58:53.300Z,9.60
2023-01-29T18:01:56.765Z,10.32
2023-01-29T18:04:59.941Z,8.70
2023-01-29T18:08:03.094Z,9.40
2023-01-29T18:11:10.850Z,9.47
2023-01-29T18:14:14.735Z,9.23
2023-01-29T18:17:22.294Z,20.58
2023-01-29T18:20:28.160Z,19.95
2023-01-29T18:23:31.404Z,22.70
2023-01-29T18:26:36.183Z,18.60
2023-01-29T18:29:39.222Z,13.02
2023-01-29T18:32:42.096Z,9.15
2023-01-29T18:35:45.197Z,9.43
2023-01-29T18:38:48.613Z,9.02
2023-01-29T18:41:52.939Z,8.27
2023-01-29T18:44:55.981Z,9.55
2023-01-29T18:47:58.798Z,8.75
2023-01-29T18:51:01.639Z,11.85
2023-01-29T18:54:05.201Z,18.20
2023-01-29T18:57:14.429Z,11.07
2023-01-29T19:00:32.784Z,15.07
2023-01-29T19:03:36.352Z,12.90
2023-01-29T19:06:39.360Z,9.93
2023-01-29T19:09:45.611Z,10.00
2023-01-29T19:12:50.353Z,9.27
2023-01-29T19:15:54.198Z,7.38
2023-01-29T19:18:58.568Z,7.88
2023-01-29T19:22:02.405Z,10.15
2023-01-29T19:25:06.802Z,8.15
2023-01-29T19:28:11.514Z,11.07
2023-01-29T19:31:14.889Z,9.70
2023-01-29T19:34:18.312Z,10.77
2023-01-29T19:37:21.498Z,13.27
2023-01-29T19:40:25.582Z,9.13
2023-01-29T19:43:33.109Z,8.27
2023-01-29T19:46:36.633Z,15.85
2023-01-29T19:49:40.668Z,14.60
2023-01-29T19:52:52.022Z,10.95
2023-01-29T19:55:59.769Z,13.15
2023-01-29T19:59:07.248Z,11.80
2023-01-29T20:02:10.848Z,10.40
2023-01-29T20:05:17.242Z,10.02
2023-01-29T20:08:22.298Z,11.13
2023-01-29T20:11:25.410Z,12.23
2023-01-29T20:14:31.056Z,10.97
2023-01-29T20:17:34.134Z,11.43
2023-01-29T20:20:39.808Z,9.88
2023-01-29T20:23:45.677Z,8.98
2023-01-29T20:26:49.377Z,10.10
2023-01-29T20:29:53.849Z,10.00
2023-01-29T20:32:57.104Z,10.50
2023-01-29T20:36:02.138Z,10.93
2023-01-29T20:39:04.797Z,11.75
2023-01-29T20:42:07.503Z,11.13
2023-01-29T20:45:12.331Z,13.90
2023-01-29T20:48:15.286Z,13.60
2023-01-29T20:51:18.903Z,11.85
2023-01-29T20:54:21.627Z,15.93
2023-01-29T20:57:24.817Z,17.17
2023-01-29T21:00:28.878Z,17.93
2023-01-29T21:03:31.864Z,17.77
2023-01-29T21:06:34.746Z,14.80
2023-01-29T21:09:37.798Z,15.20
2023-01-29T21:12:41.493Z,15.07
2023-01-29T21:15:45.955Z,15.20
2023-01-29T21:18:48.627Z,16.58
2023-01-29T21:21:51.520Z,17.77
2023-01-29T21:24:54.439Z,18.05
2023-01-29T21:27:57.910Z,17.35
2023-01-29T21:31:07.271Z,13.43
2023-01-29T21:34:10.491Z,12.77
2023-01-29T21:37:13.202Z,11.82
2023-01-29T21:40:16.736Z,12.23
2023-01-29T21:43:19.774Z,12.45
2023-01-29T21:46:23.769Z,9.77
2023-01-29T21:49:26.815Z,8.73
2023-01-29T21:52:29.506Z,10.02
2023-01-29T21:55:32.779Z,9.50
2023-01-29T21:58:35.708Z,9.98
2023-01-29T22:01:39.779Z,9.07
2023-01-29T22:04:42.836Z,9.45
2023-01-29T22:07:45.555Z,8.48
2023-01-29T22:10:48.290Z,9.45
2023-01-29T22:13:51.014Z,9.00
2023-01-29T22:16:55.002Z,8.43
2023-01-29T22:20:07.778Z,9.98
2023-01-29T22:23:12.539Z,9.05
2023-01-29T22:26:15.772Z,9.50
2023-01-29T22:29:19.581Z,9.70
2023-01-29T22:32:23.658Z,8.80
2023-01-29T22:35:26.360Z,9.05
2023-01-29T22:38:29.485Z,7.95
2023-01-29T22:41:33.709Z,8.20
2023-01-29T22:44:36.455Z,9.85
2023-01-29T22:47:40.617Z,9.33
2023-01-29T22:50:52.976Z,9.70
2023-01-29T22:53:57.078Z,9.45
2023-01-29T22:56:59.695Z,9.20
2023-01-29T23:00:02.738Z,9.95
2023-01-29T23:03:07.516Z,9.47
2023-01-29T23:06:10.461Z,10.00
2023-01-29T23:09:13.075Z,10.13
2023-01-29T23:12:16.131Z,10.55
2023-01-29T23:15:18.782Z,10.63
2023-01-29T23:18:22.736Z,11.30
2023-01-29T23:21:26.208Z,9.73
2023-01-29T23:24:28.932Z,10.18
2023-01-29T23:27:31.537Z,10.50
2023-01-29T23:30:34.258Z,9.48
2023-01-29T23:33:38.897Z,10.03
2023-01-29T23:36:41.841Z,10.20
2023-01-29T23:39:44.740Z,10.80
2023-01-29T23:42:48.420Z,10.38
2023-01-29T23:45:51.151Z,10.77
2023-01-29T23:48:55.178Z,10.30
2023-01-29T23:51:57.999Z,11.25
2023-01-29T23:55:00.733Z,10.65
2023-01-29T23:58:03.719Z,10.75
